sensor_id;sensor_type;location;lat;lon;timestamp;P1;durP1;ratioP1;P2;durP2;ratioP2
10751;SDS011;74458;51.060;4.228;2024-02-28T00:01:48;6.70;;;4.45;;
10751;SDS011;74458;51.060;4.228;2024-02-28T00:04:17;5.82;;;5.32;;
10751;SDS011;74458;51.060;4.228;2024-02-28T00:06:44;5.55;;;5.18;;
10751;SDS011;74458;51.060;4.228;2024-02-28T00:09:10;6.78;;;6.15;;
10751;SDS011;74458;51.060;4.228;2024-02-28T00:11:40;6.65;;;4.57;;
10751;SDS011;74458;51.060;4.228;2024-02-28T00:14:15;6.10;;;5.37;;
10751;SDS011;74458;51.060;4.228;2024-02-28T00:16:46;6.87;;;4.57;;
10751;SDS011;74458;51.060;4.228;2024-02-28T00:19:12;5.47;;;4.00;;
10751;SDS011;74458;51.060;4.228;2024-02-28T00:21:51;6.65;;;5.85;;
10751;SDS011;74458;51.060;4.228;2024-02-28T00:24:21;7.75;;;4.57;;
10751;SDS011;74458;51.060;4.228;2024-02-28T00:26:57;2.72;;;2.47;;
10751;SDS011;74458;51.060;4.228;2024-02-28T00:29:24;5.35;;;4.97;;
10751;SDS011;74458;51.060;4.228;2024-02-28T00:31:53;2.37;;;2.25;;
10751;SDS011;74458;51.060;4.228;2024-02-28T00:34:31;4.10;;;2.67;;
10751;SDS011;74458;51.060;4.228;2024-02-28T00:37:11;3.78;;;2.65;;
10751;SDS011;74458;51.060;4.228;2024-02-28T00:39:50;3.72;;;2.92;;
10751;SDS011;74458;51.060;4.228;2024-02-28T00:42:24;4.70;;;4.15;;
10751;SDS011;74458;51.060;4.228;2024-02-28T00:45:04;12.65;;;3.40;;
10751;SDS011;74458;51.060;4.228;2024-02-28T00:47:41;2.58;;;2.37;;
10751;SDS011;74458;51.060;4.228;2024-02-28T00:50:08;3.75;;;2.53;;
10751;SDS011;74458;51.060;4.228;2024-02-28T00:52:34;5.90;;;5.35;;
10751;SDS011;74458;51.060;4.228;2024-02-28T00:55:14;3.87;;;3.37;;
10751;SDS011;74458;51.060;4.228;2024-02-28T00:57:40;6.72;;;5.12;;
10751;SDS011;74458;51.060;4.228;2024-02-28T01:00:07;4.45;;;3.00;;
10751;SDS011;74458;51.060;4.228;2024-02-28T01:02:47;2.73;;;2.50;;
10751;SDS011;74458;51.060;4.228;2024-02-28T01:05:17;4.72;;;4.30;;
10751;SDS011;74458;51.060;4.228;2024-02-28T01:07:45;5.15;;;4.65;;
10751;SDS011;74458;51.060;4.228;2024-02-28T01:10:15;5.97;;;4.30;;
10751;SDS011;74458;51.060;4.228;2024-02-28T01:12:41;4.72;;;4.32;;
10751;SDS011;74458;51.060;4.228;2024-02-28T01:15:21;3.90;;;3.60;;
10751;SDS011;74458;51.060;4.228;2024-02-28T01:17:50;5.60;;;4.12;;
10751;SDS011;74458;51.060;4.228;2024-02-28T01:20:17;4.30;;;3.90;;
10751;SDS011;74458;51.060;4.228;2024-02-28T01:22:56;5.07;;;3.33;;
10751;SDS011;74458;51.060;4.228;2024-02-28T01:25:37;4.55;;;3.87;;
10751;SDS011;74458;51.060;4.228;2024-02-28T01:28:10;5.00;;;4.53;;
10751;SDS011;74458;51.060;4.228;2024-02-28T01:30:37;4.30;;;3.90;;
10751;SDS011;74458;51.060;4.228;2024-02-28T01:33:03;2.95;;;2.67;;
10751;SDS011;74458;51.060;4.228;2024-02-28T01:35:30;4.75;;;4.35;;
10751;SDS011;74458;51.060;4.228;2024-02-28T01:38:09;4.00;;;3.45;;
10751;SDS011;74458;51.060;4.228;2024-02-28T01:40:45;4.65;;;4.00;;
10751;SDS011;74458;51.060;4.228;2024-02-28T01:43:12;4.53;;;4.12;;
10751;SDS011;74458;51.060;4.228;2024-02-28T01:45:45;4.60;;;4.12;;
10751;SDS011;74458;51.060;4.228;2024-02-28T01:48:12;4.93;;;4.07;;
10751;SDS011;74458;51.060;4.228;2024-02-28T01:50:42;5.12;;;4.70;;
10751;SDS011;74458;51.060;4.228;2024-02-28T01:53:14;3.25;;;2.78;;
10751;SDS011;74458;51.060;4.228;2024-02-28T01:55:41;5.53;;;4.12;;
10751;SDS011;74458;51.060;4.228;2024-02-28T01:58:20;5.22;;;3.80;;
10751;SDS011;74458;51.060;4.228;2024-02-28T02:00:48;5.20;;;4.70;;
10751;SDS011;74458;51.060;4.228;2024-02-28T02:03:21;8.68;;;4.22;;
10751;SDS011;74458;51.060;4.228;2024-02-28T02:05:51;5.37;;;3.67;;
10751;SDS011;74458;51.060;4.228;2024-02-28T02:08:20;4.65;;;3.60;;
10751;SDS011;74458;51.060;4.228;2024-02-28T02:10:59;6.50;;;4.35;;
10751;SDS011;74458;51.060;4.228;2024-02-28T02:16:24;2.75;;;2.00;;
10751;SDS011;74458;51.060;4.228;2024-02-28T02:19:05;4.03;;;3.08;;
10751;SDS011;74458;51.060;4.228;2024-02-28T02:21:49;3.30;;;3.00;;
10751;SDS011;74458;51.060;4.228;2024-02-28T02:24:12;4.87;;;4.37;;
10751;SDS011;74458;51.060;4.228;2024-02-28T02:26:59;5.12;;;3.78;;
10751;SDS011;74458;51.060;4.228;2024-02-28T02:29:25;5.12;;;4.65;;
10751;SDS011;74458;51.060;4.228;2024-02-28T02:32:05;4.65;;;3.70;;
10751;SDS011;74458;51.060;4.228;2024-02-28T02:34:34;3.62;;;3.33;;
10751;SDS011;74458;51.060;4.228;2024-02-28T02:37:04;4.43;;;3.47;;
10751;SDS011;74458;51.060;4.228;2024-02-28T02:39:30;3.75;;;2.85;;
10751;SDS011;74458;51.060;4.228;2024-02-28T02:42:00;4.35;;;4.00;;
10751;SDS011;74458;51.060;4.228;2024-02-28T02:44:39;2.97;;;2.75;;
10751;SDS011;74458;51.060;4.228;2024-02-28T02:47:07;4.07;;;3.72;;
10751;SDS011;74458;51.060;4.228;2024-02-28T02:49:37;4.40;;;3.97;;
10751;SDS011;74458;51.060;4.228;2024-02-28T02:52:06;5.15;;;4.68;;
10751;SDS011;74458;51.060;4.228;2024-02-28T02:54:32;4.65;;;4.30;;
10751;SDS011;74458;51.060;4.228;2024-02-28T02:56:59;6.20;;;4.32;;
10751;SDS011;74458;51.060;4.228;2024-02-28T02:59:38;2.10;;;1.90;;
10751;SDS011;74458;51.060;4.228;2024-02-28T03:02:15;3.12;;;2.83;;
10751;SDS011;74458;51.060;4.228;2024-02-28T03:04:41;3.45;;;3.15;;
10751;SDS011;74458;51.060;4.228;2024-02-28T03:07:18;4.97;;;3.05;;
10751;SDS011;74458;51.060;4.228;2024-02-28T03:09:58;3.55;;;3.25;;
10751;SDS011;74458;51.060;4.228;2024-02-28T03:12:34;5.28;;;3.30;;
10751;SDS011;74458;51.060;4.228;2024-02-28T03:15:13;5.15;;;3.62;;
10751;SDS011;74458;51.060;4.228;2024-02-28T03:17:52;5.82;;;4.50;;
10751;SDS011;74458;51.060;4.228;2024-02-28T03:20:32;5.00;;;3.53;;
10751;SDS011;74458;51.060;4.228;2024-02-28T03:23:11;5.50;;;4.85;;
10751;SDS011;74458;51.060;4.228;2024-02-28T03:25:38;4.32;;;3.92;;
10751;SDS011;74458;51.060;4.228;2024-02-28T03:28:04;3.83;;;3.53;;
10751;SDS011;74458;51.060;4.228;2024-02-28T03:30:30;5.20;;;3.78;;
10751;SDS011;74458;51.060;4.228;2024-02-28T03:33:10;2.78;;;2.50;;
10751;SDS011;74458;51.060;4.228;2024-02-28T03:35:49;2.67;;;2.45;;
10751;SDS011;74458;51.060;4.228;2024-02-28T03:38:16;4.50;;;4.12;;
10751;SDS011;74458;51.060;4.228;2024-02-28T03:40:42;4.22;;;3.83;;
10751;SDS011;74458;51.060;4.228;2024-02-28T03:43:09;2.58;;;2.42;;
10751;SDS011;74458;51.060;4.228;2024-02-28T03:45:36;3.92;;;2.40;;
10751;SDS011;74458;51.060;4.228;2024-02-28T03:48:07;4.45;;;3.50;;
10751;SDS011;74458;51.060;4.228;2024-02-28T03:50:33;3.05;;;2.78;;
10751;SDS011;74458;51.060;4.228;2024-02-28T03:53:01;5.93;;;4.85;;
10751;SDS011;74458;51.060;4.228;2024-02-28T03:55:28;3.70;;;3.03;;
10751;SDS011;74458;51.060;4.228;2024-02-28T03:57:54;3.35;;;3.08;;
10751;SDS011;74458;51.060;4.228;2024-02-28T04:00:20;4.22;;;3.42;;
10751;SDS011;74458;51.060;4.228;2024-02-28T04:02:47;4.47;;;4.12;;
10751;SDS011;74458;51.060;4.228;2024-02-28T04:05:13;3.85;;;3.47;;
10751;SDS011;74458;51.060;4.228;2024-02-28T04:07:39;3.62;;;2.65;;
10751;SDS011;74458;51.060;4.228;2024-02-28T04:10:07;3.67;;;3.20;;
10751;SDS011;74458;51.060;4.228;2024-02-28T04:12:34;4.95;;;2.90;;
10751;SDS011;74458;51.060;4.228;2024-02-28T04:15:00;5.05;;;3.62;;
10751;SDS011;74458;51.060;4.228;2024-02-28T04:17:27;4.30;;;3.90;;
10751;SDS011;74458;51.060;4.228;2024-02-28T04:19:53;4.45;;;4.00;;
10751;SDS011;74458;51.060;4.228;2024-02-28T04:22:19;4.15;;;3.75;;
10751;SDS011;74458;51.060;4.228;2024-02-28T04:24:46;3.55;;;3.35;;
10751;SDS011;74458;51.060;4.228;2024-02-28T04:27:12;5.00;;;2.95;;
10751;SDS011;74458;51.060;4.228;2024-02-28T04:29:39;6.75;;;3.28;;
10751;SDS011;74458;51.060;4.228;2024-02-28T04:32:05;3.67;;;3.37;;
10751;SDS011;74458;51.060;4.228;2024-02-28T04:34:31;5.03;;;4.43;;
10751;SDS011;74458;51.060;4.228;2024-02-28T04:36:58;3.17;;;2.92;;
10751;SDS011;74458;51.060;4.228;2024-02-28T04:39:24;5.37;;;4.15;;
10751;SDS011;74458;51.060;4.228;2024-02-28T04:41:51;4.32;;;3.78;;
10751;SDS011;74458;51.060;4.228;2024-02-28T04:44:17;5.85;;;4.50;;
10751;SDS011;74458;51.060;4.228;2024-02-28T04:46:43;5.20;;;4.28;;
10751;SDS011;74458;51.060;4.228;2024-02-28T04:49:10;4.90;;;3.03;;
10751;SDS011;74458;51.060;4.228;2024-02-28T04:51:36;7.62;;;3.30;;
10751;SDS011;74458;51.060;4.228;2024-02-28T04:54:03;4.97;;;4.50;;
10751;SDS011;74458;51.060;4.228;2024-02-28T04:56:29;2.58;;;2.45;;
10751;SDS011;74458;51.060;4.228;2024-02-28T04:58:55;4.93;;;3.58;;
10751;SDS011;74458;51.060;4.228;2024-02-28T05:01:22;3.97;;;3.37;;
10751;SDS011;74458;51.060;4.228;2024-02-28T05:03:49;4.32;;;3.92;;
10751;SDS011;74458;51.060;4.228;2024-02-28T05:06:15;3.28;;;3.05;;
10751;SDS011;74458;51.060;4.228;2024-02-28T05:08:42;3.08;;;2.80;;
10751;SDS011;74458;51.060;4.228;2024-02-28T05:11:08;5.53;;;3.40;;
10751;SDS011;74458;51.060;4.228;2024-02-28T05:13:35;3.17;;;2.97;;
10751;SDS011;74458;51.060;4.228;2024-02-28T05:16:01;5.45;;;3.78;;
10751;SDS011;74458;51.060;4.228;2024-02-28T05:18:28;8.63;;;5.03;;
10751;SDS011;74458;51.060;4.228;2024-02-28T05:20:54;2.60;;;2.37;;
10751;SDS011;74458;51.060;4.228;2024-02-28T05:23:20;2.80;;;2.50;;
10751;SDS011;74458;51.060;4.228;2024-02-28T05:25:47;4.18;;;3.80;;
10751;SDS011;74458;51.060;4.228;2024-02-28T05:28:13;4.72;;;3.30;;
10751;SDS011;74458;51.060;4.228;2024-02-28T05:30:40;4.12;;;3.58;;
10751;SDS011;74458;51.060;4.228;2024-02-28T05:33:06;4.28;;;3.87;;
10751;SDS011;74458;51.060;4.228;2024-02-28T05:35:37;3.87;;;2.53;;
10751;SDS011;74458;51.060;4.228;2024-02-28T05:38:03;5.37;;;2.97;;
10751;SDS011;74458;51.060;4.228;2024-02-28T05:40:30;4.53;;;4.03;;
10751;SDS011;74458;51.060;4.228;2024-02-28T05:42:57;8.30;;;4.43;;
10751;SDS011;74458;51.060;4.228;2024-02-28T05:45:24;4.85;;;4.45;;
10751;SDS011;74458;51.060;4.228;2024-02-28T05:47:50;4.43;;;3.87;;
10751;SDS011;74458;51.060;4.228;2024-02-28T05:50:16;4.72;;;3.62;;
10751;SDS011;74458;51.060;4.228;2024-02-28T05:52:43;4.60;;;3.15;;
10751;SDS011;74458;51.060;4.228;2024-02-28T05:55:11;6.82;;;4.32;;
10751;SDS011;74458;51.060;4.228;2024-02-28T05:57:37;4.15;;;3.75;;
10751;SDS011;74458;51.060;4.228;2024-02-28T06:00:05;2.62;;;2.42;;
10751;SDS011;74458;51.060;4.228;2024-02-28T06:02:44;7.68;;;4.35;;
10751;SDS011;74458;51.060;4.228;2024-02-28T06:05:11;4.75;;;4.12;;
10751;SDS011;74458;51.060;4.228;2024-02-28T06:07:37;3.80;;;2.80;;
10751;SDS011;74458;51.060;4.228;2024-02-28T06:10:04;6.43;;;4.03;;
10751;SDS011;74458;51.060;4.228;2024-02-28T06:12:30;5.37;;;4.12;;
10751;SDS011;74458;51.060;4.228;2024-02-28T06:14:57;5.78;;;3.60;;
10751;SDS011;74458;51.060;4.228;2024-02-28T06:17:24;4.72;;;3.50;;
10751;SDS011;74458;51.060;4.228;2024-02-28T06:19:50;6.28;;;3.60;;
10751;SDS011;74458;51.060;4.228;2024-02-28T06:22:17;2.97;;;2.35;;
10751;SDS011;74458;51.060;4.228;2024-02-28T06:24:44;3.58;;;2.95;;
10751;SDS011;74458;51.060;4.228;2024-02-28T06:27:10;5.15;;;4.70;;
10751;SDS011;74458;51.060;4.228;2024-02-28T06:29:37;2.90;;;2.50;;
10751;SDS011;74458;51.060;4.228;2024-02-28T06:32:03;2.53;;;2.33;;
10751;SDS011;74458;51.060;4.228;2024-02-28T06:34:30;4.10;;;3.30;;
10751;SDS011;74458;51.060;4.228;2024-02-28T06:36:57;5.18;;;3.72;;
10751;SDS011;74458;51.060;4.228;2024-02-28T06:39:24;5.93;;;3.80;;
10751;SDS011;74458;51.060;4.228;2024-02-28T06:41:50;5.70;;;3.17;;
10751;SDS011;74458;51.060;4.228;2024-02-28T06:44:18;6.35;;;3.70;;
10751;SDS011;74458;51.060;4.228;2024-02-28T06:46:47;3.20;;;2.67;;
10751;SDS011;74458;51.060;4.228;2024-02-28T06:49:13;3.25;;;2.97;;
10751;SDS011;74458;51.060;4.228;2024-02-28T06:51:40;4.93;;;3.28;;
10751;SDS011;74458;51.060;4.228;2024-02-28T06:54:06;5.93;;;3.03;;
10751;SDS011;74458;51.060;4.228;2024-02-28T06:59:28;7.37;;;6.62;;
10751;SDS011;74458;51.060;4.228;2024-02-28T07:01:54;5.43;;;3.83;;
10751;SDS011;74458;51.060;4.228;2024-02-28T07:04:21;6.40;;;5.35;;
10751;SDS011;74458;51.060;4.228;2024-02-28T07:06:47;7.78;;;4.65;;
10751;SDS011;74458;51.060;4.228;2024-02-28T07:09:14;8.10;;;6.05;;
10751;SDS011;74458;51.060;4.228;2024-02-28T07:11:40;5.60;;;4.47;;
10751;SDS011;74458;51.060;4.228;2024-02-28T07:14:07;8.15;;;4.75;;
10751;SDS011;74458;51.060;4.228;2024-02-28T07:16:37;6.90;;;5.47;;
10751;SDS011;74458;51.060;4.228;2024-02-28T07:19:03;9.33;;;6.03;;
10751;SDS011;74458;51.060;4.228;2024-02-28T07:21:30;4.60;;;4.03;;
10751;SDS011;74458;51.060;4.228;2024-02-28T07:23:57;6.75;;;4.90;;
10751;SDS011;74458;51.060;4.228;2024-02-28T07:26:23;6.15;;;5.15;;
10751;SDS011;74458;51.060;4.228;2024-02-28T07:28:50;10.55;;;6.62;;
10751;SDS011;74458;51.060;4.228;2024-02-28T07:31:17;6.72;;;4.40;;
10751;SDS011;74458;51.060;4.228;2024-02-28T07:33:44;7.45;;;5.65;;
10751;SDS011;74458;51.060;4.228;2024-02-28T07:36:10;8.90;;;5.43;;
10751;SDS011;74458;51.060;4.228;2024-02-28T07:38:36;6.40;;;5.78;;
10751;SDS011;74458;51.060;4.228;2024-02-28T07:41:03;16.98;;;5.05;;
10751;SDS011;74458;51.060;4.228;2024-02-28T07:43:29;6.70;;;4.93;;
10751;SDS011;74458;51.060;4.228;2024-02-28T07:45:56;10.82;;;5.53;;
10751;SDS011;74458;51.060;4.228;2024-02-28T07:48:22;6.95;;;5.05;;
10751;SDS011;74458;51.060;4.228;2024-02-28T07:50:48;7.37;;;6.18;;
10751;SDS011;74458;51.060;4.228;2024-02-28T07:53:15;8.70;;;5.72;;
10751;SDS011;74458;51.060;4.228;2024-02-28T07:55:41;7.60;;;6.12;;
10751;SDS011;74458;51.060;4.228;2024-02-28T07:58:08;10.18;;;6.30;;
10751;SDS011;74458;51.060;4.228;2024-02-28T08:00:34;7.45;;;6.55;;
10751;SDS011;74458;51.060;4.228;2024-02-28T08:03:01;9.50;;;6.87;;
10751;SDS011;74458;51.060;4.228;2024-02-28T08:05:27;10.02;;;5.53;;
10751;SDS011;74458;51.060;4.228;2024-02-28T08:07:54;12.73;;;6.25;;
10751;SDS011;74458;51.060;4.228;2024-02-28T08:10:20;9.45;;;6.32;;
10751;SDS011;74458;51.060;4.228;2024-02-28T08:12:47;7.82;;;6.25;;
10751;SDS011;74458;51.060;4.228;2024-02-28T08:15:13;7.65;;;5.68;;
10751;SDS011;74458;51.060;4.228;2024-02-28T08:17:43;7.57;;;6.53;;
10751;SDS011;74458;51.060;4.228;2024-02-28T08:20:09;7.70;;;7.00;;
10751;SDS011;74458;51.060;4.228;2024-02-28T08:22:36;8.13;;;6.32;;
10751;SDS011;74458;51.060;4.228;2024-02-28T08:25:02;9.88;;;7.95;;
10751;SDS011;74458;51.060;4.228;2024-02-28T08:27:29;11.93;;;7.05;;
10751;SDS011;74458;51.060;4.228;2024-02-28T08:29:55;11.45;;;6.18;;
10751;SDS011;74458;51.060;4.228;2024-02-28T08:32:26;7.75;;;4.25;;
10751;SDS011;74458;51.060;4.228;2024-02-28T08:34:53;11.65;;;7.90;;
10751;SDS011;74458;51.060;4.228;2024-02-28T08:37:19;12.75;;;6.22;;
10751;SDS011;74458;51.060;4.228;2024-02-28T08:39:45;7.82;;;6.15;;
10751;SDS011;74458;51.060;4.228;2024-02-28T08:42:12;6.78;;;5.72;;
10751;SDS011;74458;51.060;4.228;2024-02-28T08:44:38;9.20;;;7.07;;
10751;SDS011;74458;51.060;4.228;2024-02-28T08:47:05;9.02;;;6.20;;
10751;SDS011;74458;51.060;4.228;2024-02-28T08:49:31;7.30;;;5.30;;
10751;SDS011;74458;51.060;4.228;2024-02-28T08:51:57;9.23;;;6.90;;
10751;SDS011;74458;51.060;4.228;2024-02-28T08:54:24;9.55;;;6.07;;
10751;SDS011;74458;51.060;4.228;2024-02-28T08:56:51;7.87;;;5.78;;
10751;SDS011;74458;51.060;4.228;2024-02-28T08:59:17;11.95;;;5.47;;
10751;SDS011;74458;51.060;4.228;2024-02-28T09:01:44;10.90;;;6.70;;
10751;SDS011;74458;51.060;4.228;2024-02-28T09:04:10;10.45;;;5.95;;
10751;SDS011;74458;51.060;4.228;2024-02-28T09:06:37;7.57;;;5.57;;
10751;SDS011;74458;51.060;4.228;2024-02-28T09:09:03;8.20;;;6.55;;
10751;SDS011;74458;51.060;4.228;2024-02-28T09:11:30;15.95;;;7.70;;
10751;SDS011;74458;51.060;4.228;2024-02-28T09:13:57;8.98;;;6.00;;
10751;SDS011;74458;51.060;4.228;2024-02-28T09:16:23;6.85;;;4.28;;
10751;SDS011;74458;51.060;4.228;2024-02-28T09:18:50;12.43;;;6.40;;
10751;SDS011;74458;51.060;4.228;2024-02-28T09:21:16;6.32;;;5.35;;
10751;SDS011;74458;51.060;4.228;2024-02-28T09:23:42;10.25;;;5.12;;
10751;SDS011;74458;51.060;4.228;2024-02-28T09:26:09;6.82;;;4.68;;
10751;SDS011;74458;51.060;4.228;2024-02-28T09:28:35;7.65;;;5.37;;
10751;SDS011;74458;51.060;4.228;2024-02-28T09:31:02;8.57;;;5.85;;
10751;SDS011;74458;51.060;4.228;2024-02-28T09:33:28;6.97;;;5.50;;
10751;SDS011;74458;51.060;4.228;2024-02-28T09:35:55;8.48;;;4.68;;
10751;SDS011;74458;51.060;4.228;2024-02-28T09:38:29;10.73;;;6.25;;
10751;SDS011;74458;51.060;4.228;2024-02-28T09:41:03;6.90;;;5.07;;
10751;SDS011;74458;51.060;4.228;2024-02-28T09:43:31;6.10;;;5.53;;
10751;SDS011;74458;51.060;4.228;2024-02-28T09:45:58;5.75;;;4.28;;
10751;SDS011;74458;51.060;4.228;2024-02-28T09:48:23;6.62;;;3.87;;
10751;SDS011;74458;51.060;4.228;2024-02-28T09:50:49;7.93;;;4.55;;
10751;SDS011;74458;51.060;4.228;2024-02-28T09:53:16;6.12;;;3.80;;
10751;SDS011;74458;51.060;4.228;2024-02-28T09:55:42;7.80;;;4.93;;
10751;SDS011;74458;51.060;4.228;2024-02-28T09:58:08;6.43;;;3.92;;
10751;SDS011;74458;51.060;4.228;2024-02-28T10:00:35;8.70;;;4.47;;
10751;SDS011;74458;51.060;4.228;2024-02-28T10:03:01;5.18;;;3.90;;
10751;SDS011;74458;51.060;4.228;2024-02-28T10:05:28;12.32;;;5.57;;
10751;SDS011;74458;51.060;4.228;2024-02-28T10:07:54;8.50;;;4.65;;
10751;SDS011;74458;51.060;4.228;2024-02-28T10:10:21;6.12;;;4.47;;
10751;SDS011;74458;51.060;4.228;2024-02-28T10:12:49;7.25;;;5.05;;
10751;SDS011;74458;51.060;4.228;2024-02-28T10:15:15;4.93;;;3.95;;
10751;SDS011;74458;51.060;4.228;2024-02-28T10:17:42;6.03;;;4.75;;
10751;SDS011;74458;51.060;4.228;2024-02-28T10:20:08;3.65;;;3.12;;
10751;SDS011;74458;51.060;4.228;2024-02-28T10:22:35;4.12;;;3.67;;
10751;SDS011;74458;51.060;4.228;2024-02-28T10:25:02;3.90;;;3.58;;
10751;SDS011;74458;51.060;4.228;2024-02-28T10:27:28;4.35;;;2.78;;
10751;SDS011;74458;51.060;4.228;2024-02-28T10:29:54;8.55;;;4.53;;
10751;SDS011;74458;51.060;4.228;2024-02-28T10:32:21;3.75;;;2.87;;
10751;SDS011;74458;51.060;4.228;2024-02-28T10:34:47;3.75;;;2.60;;
10751;SDS011;74458;51.060;4.228;2024-02-28T10:37:13;3.42;;;2.75;;
10751;SDS011;74458;51.060;4.228;2024-02-28T10:39:40;4.87;;;4.00;;
10751;SDS011;74458;51.060;4.228;2024-02-28T10:42:06;4.47;;;3.95;;
10751;SDS011;74458;51.060;4.228;2024-02-28T10:44:32;5.05;;;4.22;;
10751;SDS011;74458;51.060;4.228;2024-02-28T10:46:59;4.05;;;3.65;;
10751;SDS011;74458;51.060;4.228;2024-02-28T10:49:25;7.15;;;5.03;;
10751;SDS011;74458;51.060;4.228;2024-02-28T10:51:52;5.45;;;3.10;;
10751;SDS011;74458;51.060;4.228;2024-02-28T10:54:20;4.10;;;3.35;;
10751;SDS011;74458;51.060;4.228;2024-02-28T10:56:45;7.22;;;4.57;;
10751;SDS011;74458;51.060;4.228;2024-02-28T10:59:11;3.62;;;3.20;;
10751;SDS011;74458;51.060;4.228;2024-02-28T11:01:39;2.25;;;2.05;;
10751;SDS011;74458;51.060;4.228;2024-02-28T11:04:05;4.37;;;3.20;;
10751;SDS011;74458;51.060;4.228;2024-02-28T11:06:31;4.03;;;3.17;;
10751;SDS011;74458;51.060;4.228;2024-02-28T11:08:59;3.05;;;2.25;;
10751;SDS011;74458;51.060;4.228;2024-02-28T11:11:30;4.60;;;3.80;;
10751;SDS011;74458;51.060;4.228;2024-02-28T11:13:57;5.70;;;2.87;;
10751;SDS011;74458;51.060;4.228;2024-02-28T11:16:33;4.75;;;3.72;;
10751;SDS011;74458;51.060;4.228;2024-02-28T11:19:00;5.53;;;3.65;;
10751;SDS011;74458;51.060;4.228;2024-02-28T11:21:26;6.15;;;3.97;;
10751;SDS011;74458;51.060;4.228;2024-02-28T11:23:57;5.93;;;4.22;;
10751;SDS011;74458;51.060;4.228;2024-02-28T11:26:24;4.53;;;3.37;;
10751;SDS011;74458;51.060;4.228;2024-02-28T11:28:50;3.62;;;2.90;;
10751;SDS011;74458;51.060;4.228;2024-02-28T11:31:16;2.58;;;2.28;;
10751;SDS011;74458;51.060;4.228;2024-02-28T11:33:44;6.70;;;3.17;;
10751;SDS011;74458;51.060;4.228;2024-02-28T11:36:11;3.35;;;3.00;;
10751;SDS011;74458;51.060;4.228;2024-02-28T11:38:38;3.78;;;2.78;;
10751;SDS011;74458;51.060;4.228;2024-02-28T11:41:03;4.18;;;2.83;;
10751;SDS011;74458;51.060;4.228;2024-02-28T11:43:31;3.47;;;3.00;;
10751;SDS011;74458;51.060;4.228;2024-02-28T11:45:58;4.35;;;2.80;;
10751;SDS011;74458;51.060;4.228;2024-02-28T11:48:24;3.60;;;2.83;;
10751;SDS011;74458;51.060;4.228;2024-02-28T11:50:50;3.17;;;2.87;;
10751;SDS011;74458;51.060;4.228;2024-02-28T11:53:16;2.90;;;2.70;;
10751;SDS011;74458;51.060;4.228;2024-02-28T11:55:43;3.25;;;3.00;;
10751;SDS011;74458;51.060;4.228;2024-02-28T11:58:09;3.62;;;2.65;;
10751;SDS011;74458;51.060;4.228;2024-02-28T12:03:08;8.77;;;4.18;;
10751;SDS011;74458;51.060;4.228;2024-02-28T12:05:37;5.72;;;4.15;;
10751;SDS011;74458;51.060;4.228;2024-02-28T12:08:01;3.00;;;2.62;;
10751;SDS011;74458;51.060;4.228;2024-02-28T12:10:28;4.07;;;3.20;;
10751;SDS011;74458;51.060;4.228;2024-02-28T12:12:58;3.22;;;2.47;;
10751;SDS011;74458;51.060;4.228;2024-02-28T12:15:20;3.50;;;2.35;;
10751;SDS011;74458;51.060;4.228;2024-02-28T12:17:47;2.83;;;2.62;;
10751;SDS011;74458;51.060;4.228;2024-02-28T12:20:13;2.95;;;2.53;;
10751;SDS011;74458;51.060;4.228;2024-02-28T12:22:40;3.60;;;3.12;;
10751;SDS011;74458;51.060;4.228;2024-02-28T12:25:06;3.53;;;2.62;;
10751;SDS011;74458;51.060;4.228;2024-02-28T12:27:33;2.37;;;2.17;;
10751;SDS011;74458;51.060;4.228;2024-02-28T12:29:59;6.93;;;3.47;;
10751;SDS011;74458;51.060;4.228;2024-02-28T12:32:25;2.22;;;2.03;;
10751;SDS011;74458;51.060;4.228;2024-02-28T12:34:52;3.45;;;3.10;;
10751;SDS011;74458;51.060;4.228;2024-02-28T12:37:18;3.97;;;2.60;;
10751;SDS011;74458;51.060;4.228;2024-02-28T12:39:45;3.45;;;3.00;;
10751;SDS011;74458;51.060;4.228;2024-02-28T12:42:11;4.75;;;2.87;;
10751;SDS011;74458;51.060;4.228;2024-02-28T12:44:38;5.18;;;2.70;;
10751;SDS011;74458;51.060;4.228;2024-02-28T12:47:04;3.05;;;2.65;;
10751;SDS011;74458;51.060;4.228;2024-02-28T12:49:31;4.45;;;4.05;;
10751;SDS011;74458;51.060;4.228;2024-02-28T12:51:58;3.90;;;2.67;;
10751;SDS011;74458;51.060;4.228;2024-02-28T12:54:24;4.37;;;2.40;;
10751;SDS011;74458;51.060;4.228;2024-02-28T12:56:51;3.40;;;2.50;;
10751;SDS011;74458;51.060;4.228;2024-02-28T12:59:17;2.37;;;2.15;;
10751;SDS011;74458;51.060;4.228;2024-02-28T13:01:44;2.72;;;2.35;;
10751;SDS011;74458;51.060;4.228;2024-02-28T13:04:10;2.80;;;2.45;;
10751;SDS011;74458;51.060;4.228;2024-02-28T13:06:37;2.65;;;2.10;;
10751;SDS011;74458;51.060;4.228;2024-02-28T13:09:03;2.60;;;2.30;;
10751;SDS011;74458;51.060;4.228;2024-02-28T13:11:29;2.55;;;1.77;;
10751;SDS011;74458;51.060;4.228;2024-02-28T13:13:56;4.32;;;2.40;;
10751;SDS011;74458;51.060;4.228;2024-02-28T13:16:23;2.58;;;2.37;;
10751;SDS011;74458;51.060;4.228;2024-02-28T13:18:49;2.15;;;1.12;;
10751;SDS011;74458;51.060;4.228;2024-02-28T13:21:16;3.72;;;2.70;;
10751;SDS011;74458;51.060;4.228;2024-02-28T13:23:42;5.57;;;3.35;;
10751;SDS011;74458;51.060;4.228;2024-02-28T13:26:08;5.28;;;2.60;;
10751;SDS011;74458;51.060;4.228;2024-02-28T13:28:35;3.97;;;2.40;;
10751;SDS011;74458;51.060;4.228;2024-02-28T13:31:02;2.40;;;2.05;;
10751;SDS011;74458;51.060;4.228;2024-02-28T13:33:28;2.58;;;2.10;;
10751;SDS011;74458;51.060;4.228;2024-02-28T13:35:55;4.60;;;2.25;;
10751;SDS011;74458;51.060;4.228;2024-02-28T13:38:22;3.53;;;2.42;;
10751;SDS011;74458;51.060;4.228;2024-02-28T13:40:48;1.73;;;1.62;;
10751;SDS011;74458;51.060;4.228;2024-02-28T13:43:15;2.37;;;1.83;;
10751;SDS011;74458;51.060;4.228;2024-02-28T13:45:46;2.90;;;2.28;;
10751;SDS011;74458;51.060;4.228;2024-02-28T13:48:14;2.00;;;1.80;;
10751;SDS011;74458;51.060;4.228;2024-02-28T13:50:37;2.25;;;2.00;;
10751;SDS011;74458;51.060;4.228;2024-02-28T13:53:04;3.30;;;2.30;;
10751;SDS011;74458;51.060;4.228;2024-02-28T13:55:30;2.33;;;2.05;;
10751;SDS011;74458;51.060;4.228;2024-02-28T13:57:57;2.10;;;1.92;;
10751;SDS011;74458;51.060;4.228;2024-02-28T14:00:23;1.83;;;1.73;;
10751;SDS011;74458;51.060;4.228;2024-02-28T14:03:01;3.72;;;1.87;;
10751;SDS011;74458;51.060;4.228;2024-02-28T14:05:27;2.65;;;1.77;;
10751;SDS011;74458;51.060;4.228;2024-02-28T14:07:53;2.80;;;1.85;;
10751;SDS011;74458;51.060;4.228;2024-02-28T14:10:20;4.53;;;2.33;;
10751;SDS011;74458;51.060;4.228;2024-02-28T14:12:46;2.05;;;1.75;;
10751;SDS011;74458;51.060;4.228;2024-02-28T14:15:13;3.17;;;2.80;;
10751;SDS011;74458;51.060;4.228;2024-02-28T14:17:39;2.53;;;2.15;;
10751;SDS011;74458;51.060;4.228;2024-02-28T14:20:06;2.47;;;1.98;;
10751;SDS011;74458;51.060;4.228;2024-02-28T14:22:34;4.62;;;2.35;;
10751;SDS011;74458;51.060;4.228;2024-02-28T14:25:00;2.47;;;2.28;;
10751;SDS011;74458;51.060;4.228;2024-02-28T14:27:27;1.45;;;1.20;;
10751;SDS011;74458;51.060;4.228;2024-02-28T14:29:53;1.52;;;1.33;;
10751;SDS011;74458;51.060;4.228;2024-02-28T14:32:19;2.10;;;1.90;;
10751;SDS011;74458;51.060;4.228;2024-02-28T14:34:46;3.12;;;1.95;;
10751;SDS011;74458;51.060;4.228;2024-02-28T14:37:12;3.70;;;2.50;;
10751;SDS011;74458;51.060;4.228;2024-02-28T14:39:39;16.90;;;9.32;;
10751;SDS011;74458;51.060;4.228;2024-02-28T14:42:05;26.00;;;15.82;;
10751;SDS011;74458;51.060;4.228;2024-02-28T14:44:32;3.35;;;2.62;;
10751;SDS011;74458;51.060;4.228;2024-02-28T14:46:58;1.77;;;1.67;;
10751;SDS011;74458;51.060;4.228;2024-02-28T14:49:24;1.33;;;1.33;;
10751;SDS011;74458;51.060;4.228;2024-02-28T14:51:52;2.67;;;2.47;;
10751;SDS011;74458;51.060;4.228;2024-02-28T14:54:18;1.83;;;1.73;;
10751;SDS011;74458;51.060;4.228;2024-02-28T14:56:45;1.23;;;0.93;;
10751;SDS011;74458;51.060;4.228;2024-02-28T14:59:11;4.10;;;3.40;;
10751;SDS011;74458;51.060;4.228;2024-02-28T15:01:38;8.48;;;6.15;;